sensor_id;sensor_type;location;lat;lon;timestamp;temperature;humidity
8095;DHT22;4090;49.270;8.696;2022-07-05T00:01:46;24.00;83.00
8095;DHT22;4090;49.270;8.696;2022-07-05T00:04:27;24.00;82.70
8095;DHT22;4090;49.270;8.696;2022-07-05T00:07:10;24.00;83.00
8095;DHT22;4090;49.270;8.696;2022-07-05T00:10:02;24.00;83.10
8095;DHT22;4090;49.270;8.696;2022-07-05T00:12:46;24.00;83.30
8095;DHT22;4090;49.270;8.696;2022-07-05T00:15:28;23.90;83.60
8095;DHT22;4090;49.270;8.696;2022-07-05T00:18:09;23.80;84.10
8095;DHT22;4090;49.270;8.696;2022-07-05T00:20:51;23.80;84.90
8095;DHT22;4090;49.270;8.696;2022-07-05T00:23:33;23.70;84.80
8095;DHT22;4090;49.270;8.696;2022-07-05T00:26:15;23.70;84.70
8095;DHT22;4090;49.270;8.696;2022-07-05T00:28:58;23.60;84.90
8095;DHT22;4090;49.270;8.696;2022-07-05T00:31:40;23.50;85.60
8095;DHT22;4090;49.270;8.696;2022-07-05T00:34:22;23.50;85.70
8095;DHT22;4090;49.270;8.696;2022-07-05T00:37:04;23.40;85.90
8095;DHT22;4090;49.270;8.696;2022-07-05T00:39:46;23.40;86.70
8095;DHT22;4090;49.270;8.696;2022-07-05T00:42:28;23.50;86.20
8095;DHT22;4090;49.270;8.696;2022-07-05T00:45:12;23.50;86.00
8095;DHT22;4090;49.270;8.696;2022-07-05T00:47:53;23.50;85.90
8095;DHT22;4090;49.270;8.696;2022-07-05T00:50:35;23.40;86.70
8095;DHT22;4090;49.270;8.696;2022-07-05T00:53:17;23.40;86.70
8095;DHT22;4090;49.270;8.696;2022-07-05T00:55:59;23.40;86.90
8095;DHT22;4090;49.270;8.696;2022-07-05T00:58:41;23.40;87.30
8095;DHT22;4090;49.270;8.696;2022-07-05T01:01:26;23.30;87.50
8095;DHT22;4090;49.270;8.696;2022-07-05T01:04:08;23.30;87.60
8095;DHT22;4090;49.270;8.696;2022-07-05T01:06:52;23.30;87.40
8095;DHT22;4090;49.270;8.696;2022-07-05T01:09:34;23.20;87.80
8095;DHT22;4090;49.270;8.696;2022-07-05T01:12:17;23.00;88.60
8095;DHT22;4090;49.270;8.696;2022-07-05T01:14:59;22.90;89.70
8095;DHT22;4090;49.270;8.696;2022-07-05T01:17:42;22.90;89.90
8095;DHT22;4090;49.270;8.696;2022-07-05T01:20:24;22.80;90.10
8095;DHT22;4090;49.270;8.696;2022-07-05T01:23:08;22.80;90.00
8095;DHT22;4090;49.270;8.696;2022-07-05T01:25:50;22.80;90.30
8095;DHT22;4090;49.270;8.696;2022-07-05T01:28:33;22.70;90.30
8095;DHT22;4090;49.270;8.696;2022-07-05T01:31:15;22.80;90.20
8095;DHT22;4090;49.270;8.696;2022-07-05T01:33:57;22.70;90.20
8095;DHT22;4090;49.270;8.696;2022-07-05T01:36:39;22.60;90.60
8095;DHT22;4090;49.270;8.696;2022-07-05T01:39:22;22.60;90.70
8095;DHT22;4090;49.270;8.696;2022-07-05T01:42:05;22.60;90.90
8095;DHT22;4090;49.270;8.696;2022-07-05T01:44:47;22.50;91.10
8095;DHT22;4090;49.270;8.696;2022-07-05T01:47:28;22.50;91.00
8095;DHT22;4090;49.270;8.696;2022-07-05T01:50:13;22.40;91.10
8095;DHT22;4090;49.270;8.696;2022-07-05T01:52:56;22.20;91.20
8095;DHT22;4090;49.270;8.696;2022-07-05T01:55:41;22.20;91.40
8095;DHT22;4090;49.270;8.696;2022-07-05T01:58:24;22.10;91.50
8095;DHT22;4090;49.270;8.696;2022-07-05T02:01:06;22.20;91.50
8095;DHT22;4090;49.270;8.696;2022-07-05T02:03:50;22.30;91.30
8095;DHT22;4090;49.270;8.696;2022-07-05T02:06:33;22.30;91.20
8095;DHT22;4090;49.270;8.696;2022-07-05T02:09:15;22.30;91.30
8095;DHT22;4090;49.270;8.696;2022-07-05T02:11:58;22.20;91.40
8095;DHT22;4090;49.270;8.696;2022-07-05T02:14:41;22.10;91.60
8095;DHT22;4090;49.270;8.696;2022-07-05T02:17:28;22.10;91.80
8095;DHT22;4090;49.270;8.696;2022-07-05T02:20:11;22.10;91.80
8095;DHT22;4090;49.270;8.696;2022-07-05T02:22:53;21.90;92.00
8095;DHT22;4090;49.270;8.696;2022-07-05T02:25:35;21.90;92.00
8095;DHT22;4090;49.270;8.696;2022-07-05T02:28:24;21.90;91.90
8095;DHT22;4090;49.270;8.696;2022-07-05T02:31:07;21.80;92.10
8095;DHT22;4090;49.270;8.696;2022-07-05T02:33:49;21.80;92.10
8095;DHT22;4090;49.270;8.696;2022-07-05T02:36:33;21.80;92.10
8095;DHT22;4090;49.270;8.696;2022-07-05T02:39:15;21.70;92.50
8095;DHT22;4090;49.270;8.696;2022-07-05T02:41:58;21.80;92.50
8095;DHT22;4090;49.270;8.696;2022-07-05T02:44:41;21.80;92.40
8095;DHT22;4090;49.270;8.696;2022-07-05T02:47:24;21.80;92.20
8095;DHT22;4090;49.270;8.696;2022-07-05T02:50:08;21.70;92.50
8095;DHT22;4090;49.270;8.696;2022-07-05T02:52:54;21.70;92.50
8095;DHT22;4090;49.270;8.696;2022-07-05T02:55:36;21.60;92.60
8095;DHT22;4090;49.270;8.696;2022-07-05T02:58:19;21.60;92.70
8095;DHT22;4090;49.270;8.696;2022-07-05T03:01:03;21.50;92.70
8095;DHT22;4090;49.270;8.696;2022-07-05T03:03:48;21.50;92.80
8095;DHT22;4090;49.270;8.696;2022-07-05T03:06:32;21.50;92.90
8095;DHT22;4090;49.270;8.696;2022-07-05T03:09:15;21.50;92.70
8095;DHT22;4090;49.270;8.696;2022-07-05T03:11:57;21.60;92.70
8095;DHT22;4090;49.270;8.696;2022-07-05T03:14:39;21.60;92.60
8095;DHT22;4090;49.270;8.696;2022-07-05T03:17:23;21.50;92.60
8095;DHT22;4090;49.270;8.696;2022-07-05T03:20:06;21.60;92.60
8095;DHT22;4090;49.270;8.696;2022-07-05T03:22:48;21.50;92.70
8095;DHT22;4090;49.270;8.696;2022-07-05T03:25:33;21.40;92.60
8095;DHT22;4090;49.270;8.696;2022-07-05T03:28:18;21.50;92.70
8095;DHT22;4090;49.270;8.696;2022-07-05T03:31:02;21.50;92.80
8095;DHT22;4090;49.270;8.696;2022-07-05T03:33:51;21.50;92.90
8095;DHT22;4090;49.270;8.696;2022-07-05T03:36:33;21.50;93.00
8095;DHT22;4090;49.270;8.696;2022-07-05T03:39:18;21.50;93.30
8095;DHT22;4090;49.270;8.696;2022-07-05T03:42:01;21.50;93.40
8095;DHT22;4090;49.270;8.696;2022-07-05T03:44:45;21.50;93.40
8095;DHT22;4090;49.270;8.696;2022-07-05T03:47:27;21.40;93.20
8095;DHT22;4090;49.270;8.696;2022-07-05T03:50:10;21.30;93.20
8095;DHT22;4090;49.270;8.696;2022-07-05T03:52:54;21.10;93.60
8095;DHT22;4090;49.270;8.696;2022-07-05T03:55:36;21.10;93.70
8095;DHT22;4090;49.270;8.696;2022-07-05T03:58:19;21.10;93.60
8095;DHT22;4090;49.270;8.696;2022-07-05T04:01:01;21.10;93.50
8095;DHT22;4090;49.270;8.696;2022-07-05T04:03:44;21.20;93.50
8095;DHT22;4090;49.270;8.696;2022-07-05T04:06:29;21.20;93.60
8095;DHT22;4090;49.270;8.696;2022-07-05T04:09:13;21.20;93.70
8095;DHT22;4090;49.270;8.696;2022-07-05T04:11:55;21.20;93.90
8095;DHT22;4090;49.270;8.696;2022-07-05T04:14:37;21.10;93.90
8095;DHT22;4090;49.270;8.696;2022-07-05T04:17:19;21.20;93.90
8095;DHT22;4090;49.270;8.696;2022-07-05T04:20:02;21.10;93.90
8095;DHT22;4090;49.270;8.696;2022-07-05T04:22:45;21.10;94.00
8095;DHT22;4090;49.270;8.696;2022-07-05T04:25:29;21.10;94.10
8095;DHT22;4090;49.270;8.696;2022-07-05T04:28:31;21.10;94.20
8095;DHT22;4090;49.270;8.696;2022-07-05T04:31:14;21.10;94.20
8095;DHT22;4090;49.270;8.696;2022-07-05T04:34:00;21.10;93.90
8095;DHT22;4090;49.270;8.696;2022-07-05T04:36:45;21.00;94.00
8095;DHT22;4090;49.270;8.696;2022-07-05T04:39:29;20.90;93.90
8095;DHT22;4090;49.270;8.696;2022-07-05T04:42:18;20.80;94.20
8095;DHT22;4090;49.270;8.696;2022-07-05T04:45:00;20.80;94.70
8095;DHT22;4090;49.270;8.696;2022-07-05T04:47:42;20.80;94.20
8095;DHT22;4090;49.270;8.696;2022-07-05T04:50:25;20.80;94.50
8095;DHT22;4090;49.270;8.696;2022-07-05T04:53:07;20.70;94.90
8095;DHT22;4090;49.270;8.696;2022-07-05T04:55:50;20.70;95.00
8095;DHT22;4090;49.270;8.696;2022-07-05T04:58:32;20.70;95.20
8095;DHT22;4090;49.270;8.696;2022-07-05T05:01:13;20.70;95.20
8095;DHT22;4090;49.270;8.696;2022-07-05T05:03:55;20.60;95.40
8095;DHT22;4090;49.270;8.696;2022-07-05T05:06:37;20.40;95.50
8095;DHT22;4090;49.270;8.696;2022-07-05T05:09:19;20.30;95.80
8095;DHT22;4090;49.270;8.696;2022-07-05T05:12:03;20.30;96.20
8095;DHT22;4090;49.270;8.696;2022-07-05T05:14:45;20.30;96.10
8095;DHT22;4090;49.270;8.696;2022-07-05T05:17:34;20.30;96.30
8095;DHT22;4090;49.270;8.696;2022-07-05T05:20:17;20.30;96.40
8095;DHT22;4090;49.270;8.696;2022-07-05T05:23:00;20.50;96.30
8095;DHT22;4090;49.270;8.696;2022-07-05T05:25:41;20.70;95.80
8095;DHT22;4090;49.270;8.696;2022-07-05T05:28:25;20.60;96.00
8095;DHT22;4090;49.270;8.696;2022-07-05T05:31:07;20.70;95.80
8095;DHT22;4090;49.270;8.696;2022-07-05T05:33:49;20.80;95.40
8095;DHT22;4090;49.270;8.696;2022-07-05T05:36:30;20.70;95.10
8095;DHT22;4090;49.270;8.696;2022-07-05T05:39:12;20.70;94.90
8095;DHT22;4090;49.270;8.696;2022-07-05T05:41:54;20.70;94.80
8095;DHT22;4090;49.270;8.696;2022-07-05T05:44:37;20.90;94.90
8095;DHT22;4090;49.270;8.696;2022-07-05T05:47:19;21.00;94.30
8095;DHT22;4090;49.270;8.696;2022-07-05T05:50:01;20.90;94.20
8095;DHT22;4090;49.270;8.696;2022-07-05T05:52:43;20.90;93.90
8095;DHT22;4090;49.270;8.696;2022-07-05T05:55:26;21.00;93.90
8095;DHT22;4090;49.270;8.696;2022-07-05T05:58:12;21.10;93.90
8095;DHT22;4090;49.270;8.696;2022-07-05T06:00:55;21.10;93.90
8095;DHT22;4090;49.270;8.696;2022-07-05T06:03:38;21.10;94.10
8095;DHT22;4090;49.270;8.696;2022-07-05T06:06:20;21.20;94.00
8095;DHT22;4090;49.270;8.696;2022-07-05T06:09:02;21.20;93.80
8095;DHT22;4090;49.270;8.696;2022-07-05T06:11:44;21.10;93.70
8095;DHT22;4090;49.270;8.696;2022-07-05T06:14:26;21.20;93.90
8095;DHT22;4090;49.270;8.696;2022-07-05T06:17:09;21.20;93.60
8095;DHT22;4090;49.270;8.696;2022-07-05T06:19:51;21.20;93.40
8095;DHT22;4090;49.270;8.696;2022-07-05T06:22:33;21.30;93.70
8095;DHT22;4090;49.270;8.696;2022-07-05T06:25:15;21.30;93.90
8095;DHT22;4090;49.270;8.696;2022-07-05T06:27:59;21.40;93.90
8095;DHT22;4090;49.270;8.696;2022-07-05T06:30:41;21.50;93.60
8095;DHT22;4090;49.270;8.696;2022-07-05T06:33:24;21.50;92.90
8095;DHT22;4090;49.270;8.696;2022-07-05T06:36:08;21.60;92.80
8095;DHT22;4090;49.270;8.696;2022-07-05T06:38:50;21.60;93.10
8095;DHT22;4090;49.270;8.696;2022-07-05T06:41:32;21.70;93.40
8095;DHT22;4090;49.270;8.696;2022-07-05T06:44:14;21.70;94.00
8095;DHT22;4090;49.270;8.696;2022-07-05T06:46:56;21.70;94.40
8095;DHT22;4090;49.270;8.696;2022-07-05T06:49:39;21.80;94.60
8095;DHT22;4090;49.270;8.696;2022-07-05T06:52:21;21.80;94.70
8095;DHT22;4090;49.270;8.696;2022-07-05T06:55:03;21.80;95.10
8095;DHT22;4090;49.270;8.696;2022-07-05T06:57:45;21.80;94.70
8095;DHT22;4090;49.270;8.696;2022-07-05T07:00:27;21.90;94.50
8095;DHT22;4090;49.270;8.696;2022-07-05T07:03:10;21.90;94.30
8095;DHT22;4090;49.270;8.696;2022-07-05T07:05:53;21.80;94.30
8095;DHT22;4090;49.270;8.696;2022-07-05T07:08:34;21.90;94.40
8095;DHT22;4090;49.270;8.696;2022-07-05T07:11:34;21.90;94.10
8095;DHT22;4090;49.270;8.696;2022-07-05T07:14:16;21.90;94.30
8095;DHT22;4090;49.270;8.696;2022-07-05T07:16:58;21.90;94.10
8095;DHT22;4090;49.270;8.696;2022-07-05T07:19:40;22.00;93.80
8095;DHT22;4090;49.270;8.696;2022-07-05T07:22:23;22.00;93.90
8095;DHT22;4090;49.270;8.696;2022-07-05T07:25:05;22.00;93.60
8095;DHT22;4090;49.270;8.696;2022-07-05T07:27:49;22.10;93.50
8095;DHT22;4090;49.270;8.696;2022-07-05T07:30:31;22.10;93.40
8095;DHT22;4090;49.270;8.696;2022-07-05T07:33:13;22.10;93.20
8095;DHT22;4090;49.270;8.696;2022-07-05T07:35:55;22.10;92.30
8095;DHT22;4090;49.270;8.696;2022-07-05T07:38:38;22.20;92.20
8095;DHT22;4090;49.270;8.696;2022-07-05T07:41:20;22.20;91.90
8095;DHT22;4090;49.270;8.696;2022-07-05T07:44:02;22.20;92.60
8095;DHT22;4090;49.270;8.696;2022-07-05T07:46:44;22.20;92.60
8095;DHT22;4090;49.270;8.696;2022-07-05T07:49:26;22.30;92.50
8095;DHT22;4090;49.270;8.696;2022-07-05T07:52:08;22.30;92.90
8095;DHT22;4090;49.270;8.696;2022-07-05T07:54:51;22.30;93.30
8095;DHT22;4090;49.270;8.696;2022-07-05T07:57:33;22.30;92.80
8095;DHT22;4090;49.270;8.696;2022-07-05T08:00:15;22.40;92.20
8095;DHT22;4090;49.270;8.696;2022-07-05T08:02:57;22.40;92.30
8095;DHT22;4090;49.270;8.696;2022-07-05T08:05:39;22.50;92.70
8095;DHT22;4090;49.270;8.696;2022-07-05T08:08:21;22.50;92.80
8095;DHT22;4090;49.270;8.696;2022-07-05T08:11:05;22.50;92.70
8095;DHT22;4090;49.270;8.696;2022-07-05T08:13:47;22.60;91.70
8095;DHT22;4090;49.270;8.696;2022-07-05T08:16:29;22.60;91.50
8095;DHT22;4090;49.270;8.696;2022-07-05T08:19:10;22.70;91.80
8095;DHT22;4090;49.270;8.696;2022-07-05T08:22:10;22.70;91.10
8095;DHT22;4090;49.270;8.696;2022-07-05T08:24:51;22.70;90.80
8095;DHT22;4090;49.270;8.696;2022-07-05T08:27:35;22.80;90.00
8095;DHT22;4090;49.270;8.696;2022-07-05T08:30:16;22.80;89.70
8095;DHT22;4090;49.270;8.696;2022-07-05T08:32:58;22.90;89.90
8095;DHT22;4090;49.270;8.696;2022-07-05T08:35:40;22.90;89.20
8095;DHT22;4090;49.270;8.696;2022-07-05T08:38:22;22.90;89.60
8095;DHT22;4090;49.270;8.696;2022-07-05T08:41:07;23.00;89.10
8095;DHT22;4090;49.270;8.696;2022-07-05T08:43:51;23.00;88.70
8095;DHT22;4090;49.270;8.696;2022-07-05T08:46:39;23.10;88.70
8095;DHT22;4090;49.270;8.696;2022-07-05T08:49:22;23.10;88.40
8095;DHT22;4090;49.270;8.696;2022-07-05T08:52:09;23.20;87.80
8095;DHT22;4090;49.270;8.696;2022-07-05T08:54:52;23.20;87.00
8095;DHT22;4090;49.270;8.696;2022-07-05T08:57:34;23.30;87.30
8095;DHT22;4090;49.270;8.696;2022-07-05T09:00:18;23.30;86.80
8095;DHT22;4090;49.270;8.696;2022-07-05T09:03:00;23.40;85.70
8095;DHT22;4090;49.270;8.696;2022-07-05T09:05:43;23.40;84.80
8095;DHT22;4090;49.270;8.696;2022-07-05T09:08:25;23.50;85.10
8095;DHT22;4090;49.270;8.696;2022-07-05T09:11:09;23.50;85.20
8095;DHT22;4090;49.270;8.696;2022-07-05T09:13:52;23.60;85.40
8095;DHT22;4090;49.270;8.696;2022-07-05T09:16:35;23.70;85.90
8095;DHT22;4090;49.270;8.696;2022-07-05T09:19:17;23.70;85.90
8095;DHT22;4090;49.270;8.696;2022-07-05T09:22:03;23.70;84.70
8095;DHT22;4090;49.270;8.696;2022-07-05T09:24:45;23.80;84.90
8095;DHT22;4090;49.270;8.696;2022-07-05T09:27:27;23.80;84.00
8095;DHT22;4090;49.270;8.696;2022-07-05T09:30:10;23.80;82.80
8095;DHT22;4090;49.270;8.696;2022-07-05T09:33:01;23.90;82.30
8095;DHT22;4090;49.270;8.696;2022-07-05T09:35:51;24.00;81.20
8095;DHT22;4090;49.270;8.696;2022-07-05T09:38:35;24.00;81.00
8095;DHT22;4090;49.270;8.696;2022-07-05T09:41:17;24.00;81.10
8095;DHT22;4090;49.270;8.696;2022-07-05T09:43:59;24.20;79.70
8095;DHT22;4090;49.270;8.696;2022-07-05T09:46:41;24.20;79.60
8095;DHT22;4090;49.270;8.696;2022-07-05T09:49:26;24.20;79.10
8095;DHT22;4090;49.270;8.696;2022-07-05T09:52:09;24.30;77.80
8095;DHT22;4090;49.270;8.696;2022-07-05T09:55:00;24.30;77.80
8095;DHT22;4090;49.270;8.696;2022-07-05T09:57:43;24.40;78.00
8095;DHT22;4090;49.270;8.696;2022-07-05T10:00:27;24.40;78.90
8095;DHT22;4090;49.270;8.696;2022-07-05T10:03:09;24.50;78.90
8095;DHT22;4090;49.270;8.696;2022-07-05T10:05:52;24.60;78.00
8095;DHT22;4090;49.270;8.696;2022-07-05T10:08:34;24.60;77.30
8095;DHT22;4090;49.270;8.696;2022-07-05T10:11:17;24.70;77.80
8095;DHT22;4090;49.270;8.696;2022-07-05T10:14:01;24.80;76.20
8095;DHT22;4090;49.270;8.696;2022-07-05T10:16:47;24.90;75.80
8095;DHT22;4090;49.270;8.696;2022-07-05T10:19:33;24.90;75.00
8095;DHT22;4090;49.270;8.696;2022-07-05T10:22:21;25.00;74.70
8095;DHT22;4090;49.270;8.696;2022-07-05T10:25:04;25.10;72.90
8095;DHT22;4090;49.270;8.696;2022-07-05T10:27:47;25.10;72.00
8095;DHT22;4090;49.270;8.696;2022-07-05T10:30:29;25.20;72.50
8095;DHT22;4090;49.270;8.696;2022-07-05T10:33:11;25.30;72.10
8095;DHT22;4090;49.270;8.696;2022-07-05T10:35:55;25.30;72.50
8095;DHT22;4090;49.270;8.696;2022-07-05T10:38:41;25.40;71.40
8095;DHT22;4090;49.270;8.696;2022-07-05T10:41:25;25.50;70.70
8095;DHT22;4090;49.270;8.696;2022-07-05T10:44:07;25.60;70.00
8095;DHT22;4090;49.270;8.696;2022-07-05T10:46:49;25.70;67.30
8095;DHT22;4090;49.270;8.696;2022-07-05T10:49:31;25.80;66.70
8095;DHT22;4090;49.270;8.696;2022-07-05T10:52:23;25.90;66.80
8095;DHT22;4090;49.270;8.696;2022-07-05T10:55:20;26.00;66.20
8095;DHT22;4090;49.270;8.696;2022-07-05T10:58:23;26.20;65.70
8095;DHT22;4090;49.270;8.696;2022-07-05T11:01:33;26.30;67.00
8095;DHT22;4090;49.270;8.696;2022-07-05T11:04:27;26.40;67.60
8095;DHT22;4090;49.270;8.696;2022-07-05T11:07:14;26.60;67.90
8095;DHT22;4090;49.270;8.696;2022-07-05T11:09:59;26.70;67.20
8095;DHT22;4090;49.270;8.696;2022-07-05T11:12:44;26.80;66.10
8095;DHT22;4090;49.270;8.696;2022-07-05T11:15:25;26.90;67.20
8095;DHT22;4090;49.270;8.696;2022-07-05T11:18:14;27.00;65.80
8095;DHT22;4090;49.270;8.696;2022-07-05T11:21:16;27.10;66.30
8095;DHT22;4090;49.270;8.696;2022-07-05T11:24:18;27.30;65.10
8095;DHT22;4090;49.270;8.696;2022-07-05T11:27:01;27.40;64.70
8095;DHT22;4090;49.270;8.696;2022-07-05T11:29:46;27.50;64.40
8095;DHT22;4090;49.270;8.696;2022-07-05T11:32:37;27.70;64.70
8095;DHT22;4090;49.270;8.696;2022-07-05T11:35:19;27.80;63.80
8095;DHT22;4090;49.270;8.696;2022-07-05T11:38:05;27.90;63.80
8095;DHT22;4090;49.270;8.696;2022-07-05T11:40:48;28.00;63.60
8095;DHT22;4090;49.270;8.696;2022-07-05T11:43:30;28.20;63.40
8095;DHT22;4090;49.270;8.696;2022-07-05T11:46:14;28.20;62.50
8095;DHT22;4090;49.270;8.696;2022-07-05T11:48:57;28.30;63.30
8095;DHT22;4090;49.270;8.696;2022-07-05T11:51:41;28.40;63.70
8095;DHT22;4090;49.270;8.696;2022-07-05T11:54:23;28.40;63.40
8095;DHT22;4090;49.270;8.696;2022-07-05T11:57:08;28.50;62.60
8095;DHT22;4090;49.270;8.696;2022-07-05T11:59:52;28.60;62.70
8095;DHT22;4090;49.270;8.696;2022-07-05T12:02:43;28.70;60.30
8095;DHT22;4090;49.270;8.696;2022-07-05T12:05:30;28.70;60.00
8095;DHT22;4090;49.270;8.696;2022-07-05T12:08:19;28.90;59.40
8095;DHT22;4090;49.270;8.696;2022-07-05T12:11:01;28.90;59.70
8095;DHT22;4090;49.270;8.696;2022-07-05T12:14:02;28.90;59.10
8095;DHT22;4090;49.270;8.696;2022-07-05T12:16:44;28.90;59.10
8095;DHT22;4090;49.270;8.696;2022-07-05T12:19:27;29.00;59.70
8095;DHT22;4090;49.270;8.696;2022-07-05T12:22:09;29.00;58.80
8095;DHT22;4090;49.270;8.696;2022-07-05T12:24:51;29.10;59.30
8095;DHT22;4090;49.270;8.696;2022-07-05T12:27:35;29.20;59.60
8095;DHT22;4090;49.270;8.696;2022-07-05T12:30:18;29.30;59.60
8095;DHT22;4090;49.270;8.696;2022-07-05T12:33:01;29.50;59.40
8095;DHT22;4090;49.270;8.696;2022-07-05T12:35:45;29.60;58.00
8095;DHT22;4090;49.270;8.696;2022-07-05T12:38:29;29.60;57.60
8095;DHT22;4090;49.270;8.696;2022-07-05T12:41:11;29.70;57.80
8095;DHT22;4090;49.270;8.696;2022-07-05T12:43:54;29.80;57.70
8095;DHT22;4090;49.270;8.696;2022-07-05T12:46:36;29.90;57.00
8095;DHT22;4090;49.270;8.696;2022-07-05T12:49:18;30.00;57.00
8095;DHT22;4090;49.270;8.696;2022-07-05T12:52:04;30.00;55.80
8095;DHT22;4090;49.270;8.696;2022-07-05T12:55:09;30.10;56.10
8095;DHT22;4090;49.270;8.696;2022-07-05T12:58:09;30.00;55.00
8095;DHT22;4090;49.270;8.696;2022-07-05T13:00:51;29.90;56.10
8095;DHT22;4090;49.270;8.696;2022-07-05T13:04:03;29.90;55.90
8095;DHT22;4090;49.270;8.696;2022-07-05T13:06:48;30.00;56.30
8095;DHT22;4090;49.270;8.696;2022-07-05T13:09:35;30.00;56.70
8095;DHT22;4090;49.270;8.696;2022-07-05T13:12:18;30.00;56.60
8095;DHT22;4090;49.270;8.696;2022-07-05T13:15:01;30.20;57.00
8095;DHT22;4090;49.270;8.696;2022-07-05T13:17:44;30.20;56.60
8095;DHT22;4090;49.270;8.696;2022-07-05T13:20:26;30.30;56.80
8095;DHT22;4090;49.270;8.696;2022-07-05T13:23:08;30.30;56.90
8095;DHT22;4090;49.270;8.696;2022-07-05T13:25:51;30.40;56.40
8095;DHT22;4090;49.270;8.696;2022-07-05T13:28:33;30.50;56.30
8095;DHT22;4090;49.270;8.696;2022-07-05T13:31:14;30.50;56.70
8095;DHT22;4090;49.270;8.696;2022-07-05T13:33:57;30.50;57.20
8095;DHT22;4090;49.270;8.696;2022-07-05T13:36:40;30.60;56.40
8095;DHT22;4090;49.270;8.696;2022-07-05T13:39:22;30.60;56.50
8095;DHT22;4090;49.270;8.696;2022-07-05T13:42:06;30.60;55.60
8095;DHT22;4090;49.270;8.696;2022-07-05T13:44:48;30.50;56.40
8095;DHT22;4090;49.270;8.696;2022-07-05T13:47:30;30.50;56.30
8095;DHT22;4090;49.270;8.696;2022-07-05T13:50:11;30.50;56.40
8095;DHT22;4090;49.270;8.696;2022-07-05T13:53:11;30.50;55.70
8095;DHT22;4090;49.270;8.696;2022-07-05T13:55:53;30.40;55.40
8095;DHT22;4090;49.270;8.696;2022-07-05T13:58:36;30.40;55.60
8095;DHT22;4090;49.270;8.696;2022-07-05T14:01:18;30.30;56.10
8095;DHT22;4090;49.270;8.696;2022-07-05T14:04:01;30.20;56.00
8095;DHT22;4090;49.270;8.696;2022-07-05T14:06:43;30.20;56.00
8095;DHT22;4090;49.270;8.696;2022-07-05T14:09:26;30.20;55.50
8095;DHT22;4090;49.270;8.696;2022-07-05T14:12:08;30.20;55.00
8095;DHT22;4090;49.270;8.696;2022-07-05T14:14:51;30.20;55.20
8095;DHT22;4090;49.270;8.696;2022-07-05T14:17:33;30.20;55.80
8095;DHT22;4090;49.270;8.696;2022-07-05T14:20:15;30.20;57.30
8095;DHT22;4090;49.270;8.696;2022-07-05T14:22:57;30.20;56.30
8095;DHT22;4090;49.270;8.696;2022-07-05T14:25:39;30.10;56.50
8095;DHT22;4090;49.270;8.696;2022-07-05T14:28:21;30.10;56.10
8095;DHT22;4090;49.270;8.696;2022-07-05T14:31:04;30.10;55.70
8095;DHT22;4090;49.270;8.696;2022-07-05T14:33:46;30.10;55.50
8095;DHT22;4090;49.270;8.696;2022-07-05T14:36:28;30.10;55.50
8095;DHT22;4090;49.270;8.696;2022-07-05T14:39:09;30.00;55.90
8095;DHT22;4090;49.270;8.696;2022-07-05T14:41:52;30.00;55.50
8095;DHT22;4090;49.270;8.696;2022-07-05T14:44:35;30.00;55.10
8095;DHT22;4090;49.270;8.696;2022-07-05T14:47:18;30.00;55.20
8095;DHT22;4090;49.270;8.696;2022-07-05T14:50:00;30.00;56.00
8095;DHT22;4090;49.270;8.696;2022-07-05T14:52:42;30.00;57.50
8095;DHT22;4090;49.270;8.696;2022-07-05T14:55:24;30.10;57.70
8095;DHT22;4090;49.270;8.696;2022-07-05T14:58:06;30.20;56.50
8095;DHT22;4090;49.270;8.696;2022-07-05T15:00:48;30.30;55.60
8095;DHT22;4090;49.270;8.696;2022-07-05T15:03:31;30.30;55.10
8095;DHT22;4090;49.270;8.696;2022-07-05T15:06:13;30.40;54.30
8095;DHT22;4090;49.270;8.696;2022-07-05T15:08:55;30.50;53.80
8095;DHT22;4090;49.270;8.696;2022-07-05T15:11:37;30.50;53.50
8095;DHT22;4090;49.270;8.696;2022-07-05T15:14:19;30.50;53.40
8095;DHT22;4090;49.270;8.696;2022-07-05T15:17:01;30.40;53.40
8095;DHT22;4090;49.270;8.696;2022-07-05T15:19:44;30.50;53.90
8095;DHT22;4090;49.270;8.696;2022-07-05T15:22:26;30.50;52.90
8095;DHT22;4090;49.270;8.696;2022-07-05T15:25:08;30.50;53.50
8095;DHT22;4090;49.270;8.696;2022-07-05T15:27:50;30.60;54.00
8095;DHT22;4090;49.270;8.696;2022-07-05T15:30:32;30.60;53.10
8095;DHT22;4090;49.270;8.696;2022-07-05T15:33:14;30.70;52.60
8095;DHT22;4090;49.270;8.696;2022-07-05T15:35:57;30.70;52.40
8095;DHT22;4090;49.270;8.696;2022-07-05T15:38:39;30.80;52.90
8095;DHT22;4090;49.270;8.696;2022-07-05T15:41:21;30.80;53.40
8095;DHT22;4090;49.270;8.696;2022-07-05T15:44:04;30.80;53.20
8095;DHT22;4090;49.270;8.696;2022-07-05T15:46:46;30.60;52.80
8095;DHT22;4090;49.270;8.696;2022-07-05T15:49:44;30.60;53.00
8095;DHT22;4090;49.270;8.696;2022-07-05T15:52:27;30.50;52.40
8095;DHT22;4090;49.270;8.696;2022-07-05T15:55:10;30.50;52.30
8095;DHT22;4090;49.270;8.696;2022-07-05T15:57:52;30.50;53.00
8095;DHT22;4090;49.270;8.696;2022-07-05T16:00:34;30.50;53.50
8095;DHT22;4090;49.270;8.696;2022-07-05T16:03:16;30.40;53.40
8095;DHT22;4090;49.270;8.696;2022-07-05T16:05:58;30.40;52.70
8095;DHT22;4090;49.270;8.696;2022-07-05T16:08:41;30.40;52.10
8095;DHT22;4090;49.270;8.696;2022-07-05T16:11:23;30.50;52.60
8095;DHT22;4090;49.270;8.696;2022-07-05T16:14:05;30.60;53.50
8095;DHT22;4090;49.270;8.696;2022-07-05T16:16:47;30.60;54.30
8095;DHT22;4090;49.270;8.696;2022-07-05T16:19:29;30.50;52.20
8095;DHT22;4090;49.270;8.696;2022-07-05T16:22:11;30.50;54.60
8095;DHT22;4090;49.270;8.696;2022-07-05T16:24:54;30.60;55.30
8095;DHT22;4090;49.270;8.696;2022-07-05T16:27:36;30.70;54.50
8095;DHT22;4090;49.270;8.696;2022-07-05T16:30:18;30.80;53.20
8095;DHT22;4090;49.270;8.696;2022-07-05T16:32:59;30.80;54.50
8095;DHT22;4090;49.270;8.696;2022-07-05T16:35:41;31.00;54.50
8095;DHT22;4090;49.270;8.696;2022-07-05T16:38:23;31.00;54.00
8095;DHT22;4090;49.270;8.696;2022-07-05T16:41:08;31.10;53.20
8095;DHT22;4090;49.270;8.696;2022-07-05T16:43:50;31.20;54.20
8095;DHT22;4090;49.270;8.696;2022-07-05T16:46:32;31.20;54.20
8095;DHT22;4090;49.270;8.696;2022-07-05T16:49:14;31.30;53.30
8095;DHT22;4090;49.270;8.696;2022-07-05T16:51:55;31.30;55.00
8095;DHT22;4090;49.270;8.696;2022-07-05T16:54:37;31.30;54.80
8095;DHT22;4090;49.270;8.696;2022-07-05T16:57:21;31.20;53.20
8095;DHT22;4090;49.270;8.696;2022-07-05T17:00:04;31.20;52.00
8095;DHT22;4090;49.270;8.696;2022-07-05T17:02:46;31.20;52.00
8095;DHT22;4090;49.270;8.696;2022-07-05T17:05:29;31.10;51.80
8095;DHT22;4090;49.270;8.696;2022-07-05T17:08:10;31.00;51.60
8095;DHT22;4090;49.270;8.696;2022-07-05T17:10:52;30.90;51.80
8095;DHT22;4090;49.270;8.696;2022-07-05T17:13:35;30.90;52.20
8095;DHT22;4090;49.270;8.696;2022-07-05T17:16:20;30.90;52.30
8095;DHT22;4090;49.270;8.696;2022-07-05T17:19:04;30.80;53.60
8095;DHT22;4090;49.270;8.696;2022-07-05T17:21:45;30.80;54.60
8095;DHT22;4090;49.270;8.696;2022-07-05T17:24:27;30.70;52.20
8095;DHT22;4090;49.270;8.696;2022-07-05T17:27:09;30.70;53.00
8095;DHT22;4090;49.270;8.696;2022-07-05T17:29:52;30.70;53.70
8095;DHT22;4090;49.270;8.696;2022-07-05T17:32:34;30.60;52.40
8095;DHT22;4090;49.270;8.696;2022-07-05T17:35:16;30.50;52.00
8095;DHT22;4090;49.270;8.696;2022-07-05T17:37:58;30.40;51.50
8095;DHT22;4090;49.270;8.696;2022-07-05T17:40:40;30.30;52.10
8095;DHT22;4090;49.270;8.696;2022-07-05T17:43:22;30.30;52.60
8095;DHT22;4090;49.270;8.696;2022-07-05T17:46:05;30.20;53.40
8095;DHT22;4090;49.270;8.696;2022-07-05T17:48:48;30.10;53.30